Miguel Ángel Rodríguez

Recruteur en chef - Boca Juniors
19 Août 2027
Jeudi
Processus

Personnalité

Adaptabilité (3) Ambition (5) Controverse (2) Loyauté (17) Pression (9) Professionnalisme (8) Sportivité (11) Tempérament (20)

Profil

Style d'entraînement Démocratique
Diplôme Continental B
Détermination 9
Gestion des joueurs 13
Motivation 13
Discipline 11
Satisfaction professionnelle
78%
Fatigue
0%
Rôle Recruteur en chef
Salaire 32.9K p/s
Contrat 14.03.2030

Performance

Comportement Bon
Efficacité de l'entraînement
51%
Développement des joueurs
60%
Prévention des blessures
60%
Mise en place tactique
75%

Événements récents

A participé à une réunion de recrutement maintenant
A recommandé une cible de transfert maintenant
A recommandé une cible de transfert maintenant
A recommandé une cible de transfert maintenant
A évalué un joueur 7j
A évalué un joueur 7j
A évalué un joueur 7j
A évalué un joueur 7j

Suivi en cours

84
Joueur Club Statut Capacité Confiance Observé Dernière observation Dernier vote
Daniel Peretz Bayern Munich Actif 145 / 147 40% 10 14.08.2027 -
Lorenzo Palmisani Frosinone Actif 149 / 145 40% 4 14.08.2027 -
James Beadle Brighton Actif 126 / 142 40% 3 14.08.2027 -
Cristian Rivero Valencia Actif 126 / 137 40% 1 10.08.2027 -
Álvaro Fernández Mallorca Actif 139 / 135 40% 6 09.08.2027 -
Dani Cárdenas Espanyol Actif 125 / 142 40% 4 08.08.2027 -
Muhammed Şengezer Basaksehir Actif 120 / 128 40% 2 07.08.2027 -
Jacob Widell Zetterström Derby County Actif 124 / 134 40% 1 07.08.2027 -
Mike Penders Chelsea Actif 148 / 150 40% 6 06.08.2027 -
Arnaud Bodart OGC Nice Actif 124 / 140 40% 3 04.08.2027 -
Carl Rushworth Bayer Leverkusen Actif 132 / 148 40% 1 26.07.2027 -
Orlando Gill LOSC Lille Actif 120 / 139 40% 2 13.07.2027 -
Elia Caprile Newcastle United Actif 136 / 142 40% 1 11.07.2027 -
Áron Yaakobishvili Barcelona Actif 118 / 122 40% 1 07.07.2027 -
Gustavo Del Prete San Lorenzo Rapport prêt 116 / 112 65% 1 05.07.2027 -
Marvin Keller Bayer Leverkusen Actif 144 / 155 40% 6 04.07.2027 -
Emil Audero Como Actif 129 / 126 40% 1 02.07.2027 -
Vítězslav Jaroš Liverpool Actif 138 / 134 40% 1 02.07.2027 -
Diego Mascardi Betis Actif 122 / 129 40% 5 25.06.2027 -
Marcelino Moreno Lanús Actif 136 / 121 65% 1 21.06.2027 Approuver
Oliver Dovin Coventry City Actif 122 / 135 40% 5 17.06.2027 -
Diego Enríquez Osasuna Actif 136 / 139 40% 1 14.06.2027 -
Facundo Cambeses Racing Club Actif 123 / 122 40% 3 09.06.2027 -
Valente Pierani Estudiantes Actif 117 / 115 65% 1 03.06.2027 Approuver
Alexis Cuello San Lorenzo Actif 132 / 126 65% 1 02.06.2027 Approuver
Bitello SC Freiburg Actif 135 / 135 68% 1 01.06.2027 Approuver
Mateus Mané Manchester United Actif 129 / 134 40% 4 24.05.2027 -
Diogo Costa Manchester City Actif 169 / 164 40% 2 16.05.2027 -
Christian Krasnodar Actif 123 / 124 40% 1 05.05.2027 -
Wendel Zenit Perdu 148 / 132 40% 2 25.04.2027 -
Ngal'Ayel Mukau Paris Saint-Germain Actif 127 / 141 40% 2 25.04.2027 -
Maxime Estève RB Leipzig Actif 129 / 132 40% 3 17.04.2027 -
Nino Zenit Perdu 137 / 149 40% 5 11.04.2027 -
Christ Inao Oulaï Fiorentina Actif 140 / 133 40% 1 11.04.2027 -
Rayan Bournemouth Actif 125 / 135 40% 1 21.03.2027 -
Finn Jeltsch VfB Stuttgart Actif 136 / 137 40% 1 04.03.2027 -
Yves Bissouma Tottenham Actif 143 / 150 40% 2 29.01.2027 -
Josh King Chelsea Actif 138 / 139 40% 1 29.01.2027 -
Yussif Saidu Zaragoza Actif 124 / 128 40% 1 26.01.2027 -
Jofre Torrents Ajax Actif 113 / 126 40% 1 20.01.2027 -
Juan David Cabal Juventus Actif 145 / 143 40% 2 19.01.2027 -
Santiago Sosa Yung Sevilla Actif 114 / 138 40% 1 08.01.2027 -
Julián Quiñones Lokomotiv Moscow Actif 135 / 155 40% 13 07.01.2027 -
Jonathan Burkardt Eintracht Frankfurt Actif 138 / 140 40% 2 05.01.2027 -
Bento Al-Nassr Actif 126 / 132 40% 1 28.12.2026 -
Enzo Copetti Rosario Central Actif 119 / 122 65% 1 02.12.2026 Approuver
Toni Fruk KV Mechelen Négociation 132 / 133 66% 1 01.12.2026 Approuver
Matheus Gonçalves Al-Ahli Actif 123 / 126 40% 2 25.11.2026 -
Oscar Al-Taawoun Actif 137 / 140 40% 9 15.11.2026 Observer
Brais Méndez Columbus Crew Actif 140 / 150 40% 17 14.11.2026 Observer
Galeno Al-Ahli Actif 135 / 152 40% 4 01.11.2026 -
Djed Spence Inter Actif 143 / 148 40% 1 30.10.2026 Plus d'infos
Walid Ismail Al Shabab Actif 134 / 132 40% 1 27.10.2026 -
Steven Bergwijn Al-Ittihad Actif 134 / 155 40% 5 23.10.2026 -
Ibrahim Maza Bayer Leverkusen Actif 131 / 157 40% 3 22.10.2026 -
Razvan Balasa Crvena Zvezda Actif 133 / 154 40% 7 18.10.2026 -
Kirill Glebov CSKA Moscow Actif 113 / 125 40% 1 16.10.2026 -
Francisco Trincão Zenit Actif 142 / 165 40% 7 15.10.2026 -
Barış Alper Yılmaz Galatasaray Actif 141 / 150 40% 4 15.10.2026 -
Christos Mouzakitis Hull City Actif 131 / 142 40% 1 14.10.2026 -
Senny Mayulu Paris Saint-Germain Actif 128 / 152 40% 1 12.10.2026 -
Endrick Real Madrid Actif 144 / 152 40% 1 11.10.2026 -
Mattéo Guendouzi Fenerbahce Actif 137 / 159 40% 11 07.10.2026 -
Rodrigo Mora AS Roma Actif 127 / 149 40% 1 07.10.2026 -
Francesco Pio Esposito Inter Actif 132 / 143 40% 2 06.10.2026 -
Malcom Al Jazira Actif 139 / 144 40% 5 04.10.2026 -
Luiz Júnior TSG Hoffenheim Actif 144 / 148 40% 1 28.09.2026 -
Sam Beukema Napoli Actif 160 / 142 40% 1 28.09.2026 -
Robert FC Copenhagen Actif 133 / 125 40% 1 25.09.2026 -
Gabriel Jesus Barcelona Actif 142 / 154 40% 13 22.09.2026 -
Jan Virgili Club Brugge Actif 123 / 136 40% 1 20.09.2026 -
Théo Hernández Al-Hilal Actif 155 / 158 40% 4 16.09.2026 -
Orkun Kökçü Besiktas Actif 139 / 156 40% 2 16.09.2026 -
Kauã Elias Anderlecht Actif 137 / 144 40% 1 16.09.2026 -
Samú Al-Nassr Actif 136 / 157 40% 1 26.08.2026 -
William Gomes Porto Actif 126 / 142 40% 1 13.08.2026 -
Victor Froholdt Porto Actif 135 / 144 40% 1 10.08.2026 -
Iván Fresneda Sporting CP Actif 125 / 152 40% 1 10.08.2026 -
Valentin Atangana Al-Ahli Actif 118 / 123 40% 1 09.08.2026 -
Rúben Neves Al-Hilal Actif 139 / 153 40% 1 06.08.2026 -
Noah Sadiki Sunderland Actif 134 / 135 40% 1 05.08.2026 -
Callum Hudson-Odoi Nottingham Forest Actif 148 / 138 40% 1 05.08.2026 -
Stefanos Tzimas Brighton Actif 134 / 149 40% 1 03.08.2026 -
James Maddison Tottenham Actif 167 / 163 40% 1 01.08.2026 -